Time;durP1;ratioP1;P1;durP2;ratioP2;P2;SDS_P1;SDS_P2;PMS_P1;PMS_P2;Temp;Humidity;BMP_temperature;BMP_pressure;BME280_temperature;BME280_humidity;BME280_pressure;Samples;Min_cycle;Max_cycle;Signal;HPM_P1;HPM_P2
2023/04/02 00:00:12;;;;;;;111.50;103.68;;;13.40;99.90;;;;;;5245156;28;19912;-67
2023/04/02 00:02:56;;;;;;;112.75;104.50;;;13.60;99.90;;;;;;5232908;28;20021;-71
2023/04/02 00:05:30;;;;;;;111.18;103.22;;;13.30;99.90;;;;;;5238470;28;20037;-69
2023/04/02 00:08:09;;;;;;;123.85;115.35;;;13.70;99.90;;;;;;5242660;28;20017;-73
2023/04/02 00:10:47;;;;;;;115.70;107.45;;;13.40;99.90;;;;;;5240356;28;20020;-71
2023/04/02 00:13:22;;;;;;;121.07;112.35;;;13.40;99.90;;;;;;5238236;28;20068;-69
2023/04/02 00:15:56;;;;;;;112.90;105.40;;;13.50;99.90;;;;;;5234173;28;20427;-67
2023/04/02 00:18:27;;;;;;;117.43;109.25;;;13.50;99.90;;;;;;5229915;28;20471;-68
2023/04/02 00:21:15;;;;;;;123.90;115.18;;;13.50;99.90;;;;;;5235667;28;20057;-75
2023/04/02 00:23:47;;;;;;;118.43;110.07;;;13.40;99.90;;;;;;5245154;28;20538;-75
2023/04/02 00:26:30;;;;;;;118.50;109.95;;;13.40;99.90;;;;;;5242536;28;20040;-74
2023/04/02 00:29:04;;;;;;;118.57;110.13;;;13.50;99.90;;;;;;5242016;28;20029;-75
2023/04/02 00:31:39;;;;;;;131.65;122.60;;;13.70;99.90;;;;;;5246872;28;20013;-74
2023/04/02 00:34:36;;;;;;;119.20;110.72;;;13.50;99.90;;;;;;5246497;28;20503;-68
2023/04/02 00:37:17;;;;;;;119.32;110.43;;;13.90;99.90;;;;;;5246493;28;20041;-67
2023/04/02 00:39:48;;;;;;;;;;;13.70;99.90;;;;;;5247326;28;20476;-74
2023/04/02 00:42:19;;;;;;;129.27;119.32;;;13.60;99.90;;;;;;5246351;28;19909;-74
2023/04/02 00:44:53;;;;;;;127.38;117.38;;;13.50;99.90;;;;;;5246332;28;20365;-67
2023/04/02 00:47:30;;;;;;;128.80;118.72;;;13.80;99.90;;;;;;5246356;28;20094;-74
2023/04/02 00:50:07;;;;;;;124.38;114.60;;;14.00;99.90;;;;;;5246547;28;20031;-69
2023/04/02 00:52:39;;;;;;;121.80;112.25;;;13.50;99.90;;;;;;5248133;28;20025;-75
2023/04/02 00:55:22;;;;;;;129.48;118.60;;;13.70;99.90;;;;;;5249741;28;20048;-68
2023/04/02 00:58:00;;;;;;;122.53;112.30;;;13.80;99.90;;;;;;5249953;28;20048;-75
2023/04/02 01:00:34;;;;;;;124.60;115.13;;;14.00;99.90;;;;;;5246623;28;20034;-75
2023/04/02 01:03:17;;;;;;;128.07;117.93;;;13.80;99.90;;;;;;5249841;28;20032;-75
2023/04/02 01:05:54;;;;;;;133.43;121.57;;;13.90;99.90;;;;;;5250001;28;20495;-71
2023/04/02 01:09:00;;;;;;;121.57;111.90;;;13.80;99.90;;;;;;5249883;28;20031;-68
2023/04/02 01:11:43;;;;;;;122.72;112.63;;;13.90;99.90;;;;;;5249794;28;20036;-68
2023/04/02 01:14:44;;;;;;;122.05;112.78;;;13.90;99.90;;;;;;5249203;28;20029;-74
2023/04/02 01:17:47;;;;;;;136.48;125.53;;;13.70;99.90;;;;;;5249403;28;20043;-75
2023/04/02 01:20:39;;;;;;;125.60;115.90;;;13.70;99.90;;;;;;5249290;28;20173;-75
2023/04/02 01:23:33;;;;;;;138.30;127.35;;;13.60;99.90;;;;;;5247787;28;20037;-75
2023/04/02 01:26:35;;;;;;;132.00;121.43;;;13.90;99.90;;;;;;5248495;28;20044;-75
2023/04/02 01:29:19;;;;;;;134.90;123.45;;;13.50;99.90;;;;;;5220841;28;20044;-76
2023/04/02 01:31:51;;;;;;;129.98;120.05;;;13.50;99.90;;;;;;5249841;28;20056;-75
2023/04/02 01:34:25;;;;;;;131.75;121.15;;;13.50;99.90;;;;;;5249075;28;20095;-75
2023/04/02 01:37:21;;;;;;;239.27;221.82;;;13.80;99.90;;;;;;5249025;28;20028;-75
2023/04/02 01:40:20;;;;;;;133.68;122.35;;;13.70;99.90;;;;;;5243436;28;20427;-75
2023/04/02 01:43:16;;;;;;;126.53;116.65;;;13.70;99.90;;;;;;5248617;28;20476;-67
2023/04/02 01:45:48;;;;;;;125.47;115.13;;;13.40;99.90;;;;;;5247360;28;20044;-76
2023/04/02 01:48:26;;;;;;;123.35;113.15;;;13.40;99.90;;;;;;5248676;28;20028;-75
2023/04/02 01:50:59;;;;;;;122.35;112.38;;;13.30;99.90;;;;;;5248694;28;20059;-74
2023/04/02 01:53:30;;;;;;;160.80;147.57;;;13.40;99.90;;;;;;5247502;28;20032;-72
2023/04/02 01:56:03;;;;;;;120.95;111.20;;;13.40;99.90;;;;;;5248846;28;20500;-75
2023/04/02 01:58:34;;;;;;;121.82;111.13;;;13.30;99.90;;;;;;5248912;28;20475;-74
2023/04/02 02:01:15;;;;;;;114.18;104.75;;;13.40;99.90;;;;;;5249090;28;20026;-74
2023/04/02 02:03:48;;;;;;;118.32;108.47;;;13.20;99.90;;;;;;5249068;28;20029;-72
2023/04/02 02:06:19;;;;;;;117.55;107.10;;;13.20;99.90;;;;;;5242017;28;20079;-74
2023/04/02 02:09:02;;;;;;;121.07;111.03;;;13.20;99.90;;;;;;5248157;28;20032;-68
2023/04/02 02:11:35;;;;;;;112.65;102.25;;;13.10;99.90;;;;;;5235685;28;20387;-75
2023/04/02 02:14:23;;;;;;;112.85;102.60;;;13.00;99.90;;;;;;5227900;28;20017;-75
2023/04/02 02:16:58;;;;;;;110.88;101.15;;;13.20;99.90;;;;;;5228056;28;20033;-75
2023/04/02 02:19:39;;;;;;;114.57;105.20;;;13.10;99.90;;;;;;5228064;28;20024;-74
2023/04/02 02:22:32;;;;;;;109.43;98.85;;;12.50;99.90;;;;;;5227894;28;20366;-74
2023/04/02 02:25:09;;;;;;;113.05;103.63;;;13.30;99.90;;;;;;5240982;28;20048;-74
2023/04/02 02:27:51;;;;;;;116.65;105.82;;;12.90;99.90;;;;;;5247820;28;20021;-74
2023/04/02 02:30:52;;;;;;;116.35;106.50;;;13.10;99.90;;;;;;5248346;28;20052;-68
2023/04/02 02:33:27;;;;;;;111.13;102.05;;;12.90;99.90;;;;;;5248601;28;20514;-73
2023/04/02 02:36:02;;;;;;;115.25;104.57;;;12.30;99.90;;;;;;5248298;28;20033;-73
2023/04/02 02:38:50;;;;;;;112.38;102.85;;;12.50;99.90;;;;;;5248077;28;20019;-74
2023/04/02 02:41:21;;;;;;;111.63;101.03;;;12.50;99.90;;;;;;5248141;28;20115;-75
2023/04/02 02:44:19;;;;;;;105.13;94.85;;;12.40;99.90;;;;;;5248237;28;20151;-73
2023/04/02 02:46:51;;;;;;;106.43;96.72;;;12.60;99.90;;;;;;5247969;28;20029;-74
2023/04/02 02:49:39;;;;;;;107.15;97.32;;;12.80;99.90;;;;;;5247086;28;20414;-74
2023/04/02 02:52:21;;;;;;;97.57;88.35;;;12.70;99.90;;;;;;5248241;28;20021;-74
2023/04/02 02:54:56;;;;;;;100.13;91.32;;;12.50;99.90;;;;;;5247012;28;20049;-74
2023/04/02 02:57:34;;;;;;;98.30;88.55;;;12.40;99.90;;;;;;5233671;28;20020;-73
2023/04/02 03:00:08;;;;;;;99.95;89.97;;;12.80;99.90;;;;;;5246579;28;20107;-74
2023/04/02 03:02:41;;;;;;;96.18;86.60;;;12.70;99.90;;;;;;5245292;28;20809;-74
2023/04/02 03:05:22;;;;;;;97.80;88.75;;;12.60;99.90;;;;;;5247303;28;20078;-74
2023/04/02 03:07:56;;;;;;;100.43;90.90;;;12.40;99.90;;;;;;5246963;28;20031;-74
2023/04/02 03:10:41;;;;;;;98.05;89.40;;;12.30;99.90;;;;;;5240788;28;20012;-67
2023/04/02 03:13:34;;;;;;;92.30;84.20;;;12.40;99.90;;;;;;5246950;28;20024;-72
2023/04/02 03:16:17;;;;;;;93.72;84.85;;;12.20;99.90;;;;;;5245486;28;20020;-74
2023/04/02 03:18:53;;;;;;;93.18;84.13;;;12.20;99.90;;;;;;5247553;28;20058;-74
2023/04/02 03:21:33;;;;;;;92.53;84.38;;;12.20;99.90;;;;;;5229108;28;20017;-73
2023/04/02 03:24:16;;;;;;;95.03;86.82;;;12.20;99.90;;;;;;5225473;28;20464;-74
2023/04/02 03:26:57;;;;;;;88.40;80.35;;;12.10;99.90;;;;;;5226693;28;20048;-74
2023/04/02 03:29:35;;;;;;;87.05;79.47;;;11.70;99.90;;;;;;5235706;28;20021;-73
2023/04/02 03:32:29;;;;;;;88.13;79.10;;;12.00;99.90;;;;;;5247345;28;20028;-74
2023/04/02 03:35:31;;;;;;;86.90;78.97;;;11.90;99.90;;;;;;5247275;28;20028;-74
2023/04/02 03:38:13;;;;;;;77.57;70.03;;;11.90;99.90;;;;;;5247323;28;20036;-68
2023/04/02 03:40:58;;;;;;;82.07;74.50;;;11.80;99.90;;;;;;5247274;28;20028;-73
2023/04/02 03:43:39;;;;;;;86.35;78.13;;;11.90;99.90;;;;;;5246961;28;20035;-74
2023/04/02 03:46:16;;;;;;;85.32;77.32;;;11.70;99.90;;;;;;5247061;28;20452;-74
2023/04/02 03:49:01;;;;;;;81.38;74.15;;;11.60;99.90;;;;;;5247066;28;20111;-74
2023/04/02 03:51:59;;;;;;;81.07;73.43;;;11.60;99.90;;;;;;5247325;28;20020;-75
2023/04/02 03:54:31;;;;;;;76.95;70.53;;;11.60;99.90;;;;;;5246682;28;20056;-74
2023/04/02 03:57:02;;;;;;;76.03;69.65;;;11.50;99.90;;;;;;5247189;28;20116;-75
2023/04/02 03:59:49;;;;;;;73.22;66.68;;;11.30;99.90;;;;;;5246005;28;20039;-67
2023/04/02 04:02:33;;;;;;;71.78;65.90;;;11.50;99.90;;;;;;5247468;28;20046;-68
2023/04/02 04:05:06;;;;;;;81.75;74.93;;;11.60;99.90;;;;;;5247221;28;20047;-75
2023/04/02 04:07:40;;;;;;;75.38;69.32;;;11.40;99.90;;;;;;5246672;28;20031;-75
2023/04/02 04:10:19;;;;;;;75.88;69.63;;;11.40;99.90;;;;;;5246927;28;20495;-68
2023/04/02 04:12:53;;;;;;;83.15;77.13;;;11.50;99.90;;;;;;5246924;28;20155;-76
2023/04/02 04:15:31;;;;;;;81.60;75.82;;;11.60;99.90;;;;;;5246897;28;20017;-75
2023/04/02 04:18:28;;;;;;;86.53;80.30;;;11.60;99.90;;;;;;5246899;28;20024;-76
2023/04/02 04:21:10;;;;;;;87.25;80.93;;;11.70;99.90;;;;;;5246487;28;20450;-76
2023/04/02 04:23:49;;;;;;;91.85;85.53;;;11.30;99.90;;;;;;5245552;28;20081;-76
2023/04/02 04:26:35;;;;;;;90.55;84.65;;;11.40;99.90;;;;;;5246658;28;20123;-70
2023/04/02 04:29:24;;;;;;;93.43;87.00;;;11.60;99.90;;;;;;5250965;28;20035;-75
2023/04/02 04:31:57;;;;;;;97.00;90.78;;;11.60;99.90;;;;;;5250730;28;20021;-75
2023/04/02 04:34:41;;;;;;;97.53;90.80;;;11.60;99.90;;;;;;5250632;28;20423;-75
2023/04/02 04:37:24;;;;;;;96.30;90.22;;;11.50;99.90;;;;;;5250348;28;20036;-76
2023/04/02 04:40:19;;;;;;;101.75;95.05;;;11.40;99.90;;;;;;5250475;28;20545;-73
2023/04/02 04:42:53;;;;;;;101.05;94.30;;;11.70;99.90;;;;;;5250510;28;20031;-73
2023/04/02 04:45:42;;;;;;;107.22;100.63;;;11.80;99.90;;;;;;5250386;28;20040;-73
2023/04/02 04:48:38;;;;;;;114.93;107.70;;;11.90;99.90;;;;;;5250467;28;20060;-67
2023/04/02 04:51:27;;;;;;;118.32;111.38;;;11.80;99.90;;;;;;5229070;28;20037;-68
2023/04/02 04:54:00;;;;;;;110.07;102.88;;;11.80;99.90;;;;;;5250303;28;20097;-74
2023/04/02 04:56:31;;;;;;;111.68;104.80;;;11.80;99.90;;;;;;5249819;28;20082;-73
2023/04/02 04:59:12;;;;;;;106.25;99.88;;;12.00;99.90;;;;;;5235363;28;20024;-74
2023/04/02 05:02:16;;;;;;;105.30;99.10;;;11.90;99.90;;;;;;5259212;28;20033;-68
2023/04/02 05:04:51;;;;;;;98.50;92.60;;;11.60;99.90;;;;;;5229593;28;20029;-71
2023/04/02 05:07:28;;;;;;;95.70;90.00;;;11.70;99.90;;;;;;5229307;28;20048;-74
2023/04/02 05:10:03;;;;;;;81.85;76.93;;;11.80;99.90;;;;;;5229412;28;20080;-74
2023/04/02 05:12:39;;;;;;;94.88;88.50;;;11.90;99.90;;;;;;5244193;28;20033;-74
2023/04/02 05:15:31;;;;;;;88.88;83.72;;;12.10;99.90;;;;;;5243815;28;20486;-69
2023/04/02 05:18:11;;;;;;;96.78;91.15;;;12.10;99.90;;;;;;5232501;28;20036;-74
2023/04/02 05:20:56;;;;;;;101.55;95.30;;;12.20;99.90;;;;;;5241857;28;20067;-68
2023/04/02 05:23:33;;;;;;;98.25;92.55;;;12.30;99.90;;;;;;5249103;28;20107;-75
2023/04/02 05:26:36;;;;;;;92.95;87.57;;;12.30;99.90;;;;;;5249107;28;20504;-75
2023/04/02 05:29:22;;;;;;;90.05;84.95;;;12.60;99.90;;;;;;5229900;28;20091;-76
2023/04/02 05:32:02;;;;;;;88.10;83.20;;;12.50;99.90;;;;;;5249580;28;20051;-75
2023/04/02 05:34:37;;;;;;;89.65;84.55;;;12.50;99.90;;;;;;5244831;28;20119;-75
2023/04/02 05:37:18;;;;;;;92.35;87.10;;;12.60;99.90;;;;;;5244473;28;20356;-75
2023/04/02 05:40:13;;;;;;;98.10;92.50;;;12.50;99.90;;;;;;5246268;28;20424;-74
2023/04/02 05:42:48;;;;;;;102.13;96.38;;;12.60;99.90;;;;;;5242055;28;20123;-73
2023/04/02 05:45:25;;;;;;;102.97;97.18;;;12.80;99.90;;;;;;5248771;28;20047;-74
2023/04/02 05:48:00;;;;;;;106.75;100.63;;;12.60;99.90;;;;;;5244911;28;20029;-75
2023/04/02 05:50:39;;;;;;;104.00;98.32;;;12.90;99.90;;;;;;5248210;28;20040;-71
2023/04/02 05:53:13;;;;;;;92.75;87.50;;;13.20;99.90;;;;;;5248326;28;20021;-75
2023/04/02 05:56:15;;;;;;;87.72;82.70;;;13.20;99.90;;;;;;5238231;28;20059;-74
2023/04/02 05:58:59;;;;;;;91.78;86.78;;;13.30;99.90;;;;;;5240858;28;20020;-68
2023/04/02 06:01:37;;;;;;;96.65;91.10;;;13.30;99.90;;;;;;5248325;28;20106;-70
2023/04/02 06:04:21;;;;;;;102.38;96.63;;;13.40;99.90;;;;;;5241615;28;20099;-70
2023/04/02 06:06:57;;;;;;;108.70;102.72;;;13.70;99.90;;;;;;5246191;28;20071;-64
2023/04/02 06:09:38;;;;;;;99.80;94.18;;;13.90;99.90;;;;;;5245812;28;20027;-74
2023/04/02 06:12:34;;;;;;;94.50;89.28;;;13.80;99.90;;;;;;5248310;28;20036;-68
2023/04/02 06:15:26;;;;;;;103.30;97.28;;;13.70;99.90;;;;;;5247155;28;20036;-68
2023/04/02 06:18:22;;;;;;;98.20;92.50;;;13.50;99.90;;;;;;5239733;28;20037;-68
2023/04/02 06:20:53;;;;;;;104.18;98.47;;;13.70;99.90;;;;;;5243757;28;20036;-67
2023/04/02 06:23:31;;;;;;;110.70;104.55;;;13.60;99.90;;;;;;5248063;28;20032;-75
2023/04/02 06:26:21;;;;;;;115.35;108.93;;;13.70;99.90;;;;;;5248139;28;20048;-76
2023/04/02 06:29:26;;;;;;;109.07;102.95;;;13.50;99.90;;;;;;5247868;28;20024;-68
2023/04/02 06:32:03;;;;;;;105.10;99.22;;;13.60;99.90;;;;;;5238459;28;20119;-67
2023/04/02 06:34:37;;;;;;;108.45;102.10;;;13.50;99.90;;;;;;5239043;28;20028;-74
2023/04/02 06:37:18;;;;;;;104.53;98.70;;;13.80;99.90;;;;;;5244564;28;20016;-71
2023/04/02 06:39:49;;;;;;;102.07;96.20;;;13.70;99.90;;;;;;5246216;28;20032;-74
2023/04/02 06:42:37;;;;;;;98.15;91.70;;;13.90;99.90;;;;;;5247734;28;20029;-74
2023/04/02 06:45:24;;;;;;;99.32;93.72;;;13.90;99.90;;;;;;5247477;28;20031;-68
2023/04/02 06:47:59;;;;;;;88.20;82.95;;;13.90;99.90;;;;;;5237932;28;20028;-69
2023/04/02 06:50:46;;;;;;;85.25;80.43;;;14.00;99.90;;;;;;5246183;28;20035;-75
2023/04/02 06:53:34;;;;;;;85.72;80.88;;;14.10;99.90;;;;;;5240615;28;20021;-69
2023/04/02 06:56:45;;;;;;;74.82;70.38;;;14.20;99.90;;;;;;5247114;28;20048;-74
2023/04/02 06:59:17;;;;;;;83.18;78.40;;;14.10;99.90;;;;;;5203825;28;20060;-68
2023/04/02 07:01:53;;;;;;;82.35;77.65;;;14.10;99.90;;;;;;5202014;28;20033;-76
2023/04/02 07:04:25;;;;;;;78.68;74.20;;;14.30;99.90;;;;;;5203850;28;20413;-75
2023/04/02 07:06:56;;;;;;;76.97;72.47;;;14.30;99.90;;;;;;5195812;28;20069;-69
2023/04/02 07:09:26;;;;;;;79.32;74.88;;;14.70;99.90;;;;;;5203569;28;20080;-75
2023/04/02 07:11:57;;;;;;;77.18;72.90;;;14.90;99.90;;;;;;5203466;28;20113;-68
2023/04/02 07:14:28;;;;;;;75.20;71.00;;;15.20;99.90;;;;;;5183510;28;20030;-75
2023/04/02 07:16:59;;;;;;;76.03;71.90;;;15.30;99.90;;;;;;5199824;28;20038;-76
2023/04/02 07:19:30;;;;;;;85.93;81.30;;;15.50;99.90;;;;;;5182803;28;20022;-72
2023/04/02 07:22:01;;;;;;;81.72;77.10;;;15.30;99.90;;;;;;5200339;28;20128;-76
2023/04/02 07:24:31;;;;;;;74.35;70.30;;;15.40;99.90;;;;;;5194944;28;20398;-67
2023/04/02 07:27:02;;;;;;;80.35;75.78;;;15.40;99.90;;;;;;5202930;28;20550;-67
2023/04/02 07:29:33;;;;;;;78.47;73.97;;;15.50;99.90;;;;;;5216488;28;20035;-69
2023/04/02 07:32:04;;;;;;;82.05;77.35;;;15.50;99.90;;;;;;5244500;28;20037;-76
2023/04/02 07:34:36;;;;;;;72.07;68.20;;;15.70;99.90;;;;;;5238489;28;20020;-76
2023/04/02 07:37:11;;;;;;;73.32;69.43;;;15.70;99.90;;;;;;5246805;28;20036;-72
2023/04/02 07:39:42;;;;;;;70.57;66.78;;;15.90;99.90;;;;;;5245165;28;20025;-73
2023/04/02 07:42:13;;;;;;;69.13;65.35;;;15.80;99.90;;;;;;5245527;28;20875;-76
2023/04/02 07:44:44;;;;;;;72.78;68.90;;;15.90;99.90;;;;;;5243444;28;20388;-67
2023/04/02 07:47:15;;;;;;;65.40;61.95;;;15.90;99.90;;;;;;5245093;28;20120;-69
2023/04/02 07:49:46;;;;;;;65.13;61.72;;;16.30;99.90;;;;;;5246503;28;20032;-69
2023/04/02 07:52:17;;;;;;;64.05;60.70;;;16.40;99.90;;;;;;5245429;28;20032;-67
2023/04/02 07:54:48;;;;;;;65.28;61.83;;;16.90;99.90;;;;;;5244705;28;20039;-76
2023/04/02 07:57:19;;;;;;;70.78;66.97;;;16.80;99.90;;;;;;5242697;28;20527;-73
2023/04/02 07:59:50;;;;;;;76.43;72.30;;;16.80;99.90;;;;;;5245330;28;20060;-69
2023/04/02 08:02:22;;;;;;;76.80;72.60;;;17.00;99.90;;;;;;5248446;28;20495;-70
2023/04/02 08:04:52;;;;;;;65.65;62.05;;;17.40;99.90;;;;;;5240946;28;20472;-77
2023/04/02 08:07:23;;;;;;;64.05;60.63;;;16.90;99.90;;;;;;5250252;28;20033;-76
2023/04/02 08:09:54;;;;;;;66.95;63.22;;;17.10;99.90;;;;;;5250521;28;20499;-74
2023/04/02 08:12:25;;;;;;;68.72;65.03;;;17.80;99.90;;;;;;5248297;28;20484;-72
2023/04/02 08:14:56;;;;;;;64.95;61.42;;;17.70;99.90;;;;;;5243631;28;20047;-71
2023/04/02 08:17:30;;;;;;;36.97;34.97;;;18.10;99.90;;;;;;5249572;28;20047;-70
2023/04/02 08:20:01;;;;;;;57.55;54.40;;;18.30;99.90;;;;;;5243855;28;20028;-77
2023/04/02 08:22:32;;;;;;;70.80;67.00;;;18.10;99.90;;;;;;5248765;28;20439;-76
2023/04/02 08:25:03;;;;;;;58.55;55.30;;;18.10;99.90;;;;;;5242075;28;20377;-72
2023/04/02 08:27:34;;;;;;;55.92;52.85;;;18.00;99.90;;;;;;5248603;28;20412;-71
2023/04/02 08:30:08;;;;;;;52.75;49.50;;;18.20;99.90;;;;;;5250378;28;20028;-70
2023/04/02 08:32:40;;;;;;;57.35;54.30;;;18.70;99.90;;;;;;5246888;28;20401;-69
2023/04/02 08:35:13;;;;;;;69.65;65.63;;;18.50;98.90;;;;;;5248384;28;20040;-70
2023/04/02 08:37:44;;;;;;;45.85;43.33;;;18.20;98.40;;;;;;5250296;28;20130;-75
2023/04/02 08:40:34;;;;;;;59.05;55.88;;;18.60;99.90;;;;;;5245358;28;20612;-68
2023/04/02 08:43:08;;;;;;;96.05;90.22;;;18.50;97.90;;;;;;5250046;28;20028;-67
2023/04/02 08:46:00;;;;;;;54.17;50.97;;;18.60;96.30;;;;;;5249998;28;20041;-73
2023/04/02 08:48:33;;;;;;;55.33;52.13;;;18.30;98.80;;;;;;5249165;28;20116;-68
2023/04/02 08:51:07;;;;;;;110.55;104.60;;;18.60;99.90;;;;;;5249571;28;20531;-70
2023/04/02 08:53:40;;;;;;;60.58;57.30;;;18.10;96.20;;;;;;5243880;28;20024;-69
2023/04/02 08:56:19;;;;;;;46.38;43.83;;;18.70;95.30;;;;;;5249719;28;20174;-77
2023/04/02 08:58:55;;;;;;;38.97;36.88;;;18.80;94.60;;;;;;5250197;28;20031;-76
2023/04/02 09:01:50;;;;;;;44.35;41.70;;;18.80;93.50;;;;;;5250139;28;20099;-77
2023/04/02 09:04:23;;;;;;;48.63;46.03;;;18.60;91.40;;;;;;5237731;28;20096;-67
2023/04/02 09:06:56;;;;;;;48.10;45.60;;;19.20;88.50;;;;;;5242512;28;20051;-68
2023/04/02 09:09:26;;;;;;;63.53;60.13;;;19.20;88.70;;;;;;5249888;28;20025;-67
2023/04/02 09:12:02;;;;;;;58.17;54.95;;;19.20;91.10;;;;;;5248604;28;20032;-68
2023/04/02 09:14:52;;;;;;;48.15;45.35;;;19.40;96.00;;;;;;5247441;28;20020;-68
2023/04/02 09:17:25;;;;;;;38.85;36.65;;;19.20;95.00;;;;;;5249016;28;20864;-67
2023/04/02 09:20:12;;;;;;;70.72;66.63;;;19.50;94.10;;;;;;5244654;28;20044;-67
2023/04/02 09:22:49;;;;;;;63.17;59.72;;;18.60;97.20;;;;;;5249467;28;20380;-67
2023/04/02 09:25:30;;;;;;;107.35;100.15;;;18.70;95.90;;;;;;5246905;28;20032;-72
2023/04/02 09:28:03;;;;;;;94.93;89.80;;;19.00;95.10;;;;;;5248099;28;20039;-74
2023/04/02 09:31:00;;;;;;;95.47;90.20;;;18.80;94.00;;;;;;5249344;28;20027;-72
2023/04/02 09:33:49;;;;;;;59.25;55.30;;;19.20;94.60;;;;;;5246313;28;20036;-68
2023/04/02 09:36:39;;;;;;;62.20;58.58;;;19.10;93.00;;;;;;5248946;28;20024;-68
2023/04/02 09:39:18;;;;;;;69.10;65.07;;;18.70;92.50;;;;;;5247842;28;20036;-67
2023/04/02 09:41:49;;;;;;;87.18;82.30;;;18.90;92.00;;;;;;5247336;28;20078;-67
2023/04/02 09:44:25;;;;;;;27.20;25.42;;;19.30;90.70;;;;;;5246450;28;20027;-71
2023/04/02 09:47:17;;;;;;;82.50;77.90;;;18.90;92.40;;;;;;5248912;28;20136;-74
2023/04/02 09:49:47;;;;;;;107.13;101.22;;;18.90;90.00;;;;;;5241169;28;20036;-71
2023/04/02 09:52:28;;;;;;;84.45;79.82;;;19.40;90.30;;;;;;5248766;28;20021;-70
2023/04/02 09:55:15;;;;;;;81.43;76.75;;;19.30;92.70;;;;;;5248171;28;20049;-67
2023/04/02 09:57:47;;;;;;;90.10;85.10;;;19.60;92.50;;;;;;5248579;28;20056;-73
2023/04/02 10:00:25;;;;;;;77.18;72.65;;;19.70;92.20;;;;;;5226961;28;20036;-69
2023/04/02 10:03:25;;;;;;;50.90;47.88;;;20.00;91.70;;;;;;5246087;28;20025;-78
2023/04/02 10:06:11;;;;;;;90.57;85.40;;;19.20;93.00;;;;;;5248156;28;20120;-70
2023/04/02 10:08:44;;;;;;;46.10;43.25;;;19.20;91.40;;;;;;5247644;28;20032;-68
2023/04/02 10:11:29;;;;;;;99.63;94.22;;;19.50;88.90;;;;;;5241433;28;20100;-76
2023/04/02 10:14:05;;;;;;;92.00;86.93;;;19.40;91.20;;;;;;5247839;28;20083;-77
2023/04/02 10:16:40;;;;;;;72.10;67.97;;;20.00;91.00;;;;;;5242230;28;20128;-72
2023/04/02 10:19:32;;;;;;;49.28;46.25;;;19.80;87.50;;;;;;5245954;28;20016;-68
2023/04/02 10:22:09;;;;;;;61.88;58.28;;;19.80;88.50;;;;;;5246970;28;20033;-68
2023/04/02 10:24:40;;;;;;;58.92;55.05;;;20.30;90.70;;;;;;5245746;28;20061;-71
2023/04/02 10:27:21;;;;;;;24.33;22.75;;;20.30;88.90;;;;;;5244473;28;20410;-69
2023/04/02 10:30:22;;;;;;;38.67;36.35;;;20.30;87.90;;;;;;5248251;28;20021;-68
2023/04/02 10:33:06;;;;;;;51.65;48.75;;;20.30;91.00;;;;;;5247893;28;20059;-78
2023/04/02 10:35:46;;;;;;;47.00;44.17;;;20.00;88.70;;;;;;5246349;28;20035;-74
2023/04/02 10:38:47;;;;;;;44.55;41.97;;;20.00;87.20;;;;;;5246185;28;20045;-68
2023/04/02 10:41:33;;;;;;;47.55;44.92;;;20.20;87.90;;;;;;5239460;28;20164;-69
2023/04/02 10:44:41;;;;;;;82.65;77.93;;;20.10;84.40;;;;;;5247394;28;20032;-71
2023/04/02 10:47:17;;;;;;;112.88;106.38;;;20.10;86.60;;;;;;5245528;28;20101;-74
2023/04/02 10:50:14;;;;;;;42.65;40.03;;;19.70;85.10;;;;;;5246220;28;20031;-76
2023/04/02 10:52:55;;;;;;;42.30;39.80;;;20.30;88.20;;;;;;5239465;28;20384;-77
2023/04/02 10:55:38;;;;;;;57.97;54.67;;;20.70;87.40;;;;;;5246743;28;20052;-68
2023/04/02 10:58:37;;;;;;;56.45;53.25;;;20.50;87.00;;;;;;5247137;28;20492;-75
2023/04/02 11:01:15;;;;;;;42.05;39.35;;;20.20;86.20;;;;;;5246265;28;20036;-72
2023/04/02 11:04:14;;;;;;;52.80;49.90;;;20.00;84.50;;;;;;5246066;28;20035;-68
2023/04/02 11:06:57;;;;;;;79.47;75.00;;;19.90;85.60;;;;;;5245998;28;20432;-76
2023/04/02 11:09:36;;;;;;;65.88;62.08;;;19.90;86.20;;;;;;5241120;28;20082;-73
2023/04/02 11:12:17;;;;;;;53.53;50.53;;;19.90;87.30;;;;;;5247015;28;20357;-72
2023/04/02 11:14:49;;;;;;;66.65;62.78;;;19.50;88.50;;;;;;5239064;28;20104;-72
2023/04/02 11:17:20;;;;;;;67.85;63.67;;;19.70;87.70;;;;;;5245412;28;20032;-67
2023/04/02 11:19:51;;;;;;;61.53;58.05;;;19.20;87.40;;;;;;5246654;28;20031;-66
2023/04/02 11:22:23;;;;;;;64.40;60.75;;;19.10;87.10;;;;;;5245220;28;20125;-72
2023/04/02 11:24:56;;;;;;;71.30;67.30;;;19.60;89.00;;;;;;5246781;28;20033;-73
2023/04/02 11:27:34;;;;;;;55.80;52.60;;;19.60;86.80;;;;;;5246331;28;20036;-66
2023/04/02 11:30:26;;;;;;;89.43;82.45;;;19.40;88.20;;;;;;5244661;28;20123;-70
2023/04/02 11:33:38;;;;;;;111.15;102.38;;;20.00;86.80;;;;;;5243531;28;20032;-65
2023/04/02 11:36:46;;;;;;;56.20;53.10;;;20.10;86.40;;;;;;5242010;28;20032;-70
2023/04/02 11:39:48;;;;;;;59.92;56.45;;;20.70;86.30;;;;;;5243804;28;20028;-67
2023/04/02 11:42:19;;;;;;;42.35;40.00;;;20.20;84.60;;;;;;5243794;28;20039;-69
2023/04/02 11:44:50;;;;;;;32.28;30.55;;;20.40;84.80;;;;;;5245321;28;20480;-77
2023/04/02 11:47:24;;;;;;;113.47;106.75;;;20.30;84.20;;;;;;5246804;28;20036;-66
2023/04/02 11:49:56;;;;;;;72.15;68.10;;;20.10;84.60;;;;;;5245377;28;20473;-66
2023/04/02 11:52:49;;;;;;;60.85;57.45;;;19.80;84.40;;;;;;5242520;28;20047;-66
2023/04/02 11:55:34;;;;;;;60.03;56.67;;;20.00;84.90;;;;;;5246444;28;20587;-65
2023/04/02 11:58:27;;;;;;;73.75;69.50;;;20.10;84.90;;;;;;5246523;28;20102;-75
2023/04/02 12:01:04;;;;;;;57.72;54.25;;;20.20;86.00;;;;;;5246261;28;20113;-66
2023/04/02 12:04:08;;;;;;;94.90;89.25;;;20.60;85.70;;;;;;5244094;28;20077;-66
2023/04/02 12:06:45;;;;;;;67.53;63.17;;;20.20;86.50;;;;;;5236755;28;20040;-67
2023/04/02 12:09:25;;;;;;;46.20;43.25;;;20.30;86.10;;;;;;5246101;28;20024;-71
2023/04/02 12:12:15;;;;;;;27.92;26.08;;;20.50;85.60;;;;;;5237796;28;20032;-76
2023/04/02 12:14:55;;;;;;;63.90;59.97;;;20.70;85.10;;;;;;5239163;28;20028;-68
2023/04/02 12:17:35;;;;;;;33.83;31.30;;;20.90;84.40;;;;;;5236826;28;20052;-79
2023/04/02 12:20:09;;;;;;;;;;;20.50;85.20;;;;;;5240174;28;20033;-75
2023/04/02 12:22:51;;;;;;;57.80;54.40;;;20.30;84.40;;;;;;5238714;28;20593;-66
2023/04/02 12:25:39;;;;;;;63.20;59.55;;;20.10;85.00;;;;;;5241157;28;20112;-77
2023/04/02 12:28:10;;;;;;;75.65;71.40;;;20.20;85.10;;;;;;5239716;28;20122;-66
2023/04/02 12:30:41;;;;;;;57.17;53.58;;;20.30;84.90;;;;;;5244493;28;20054;-77
2023/04/02 12:33:19;;;;;;;71.68;67.20;;;20.00;84.80;;;;;;5245861;28;20089;-69
2023/04/02 12:35:56;;;;;;;70.65;65.88;;;20.30;87.90;;;;;;5243599;28;20484;-67
2023/04/02 12:38:35;;;;;;;63.25;59.45;;;20.50;85.90;;;;;;5246176;28;20020;-66
2023/04/02 12:41:28;;;;;;;41.72;38.95;;;20.00;85.30;;;;;;5245953;28;20020;-65
2023/04/02 12:44:00;;;;;;;48.92;46.03;;;20.10;85.10;;;;;;5236767;28;20025;-65
2023/04/02 12:46:33;;;;;;;63.05;59.35;;;20.10;84.40;;;;;;5240244;28;20119;-66
2023/04/02 12:49:13;;;;;;;94.43;89.07;;;20.00;85.60;;;;;;5248704;28;20086;-66
2023/04/02 12:51:44;;;;;;;64.60;60.78;;;20.00;86.10;;;;;;5249953;28;20040;-76
2023/04/02 12:54:17;;;;;;;69.15;64.93;;;19.90;86.20;;;;;;5248473;28;20017;-70
2023/04/02 12:56:48;;;;;;;82.22;77.63;;;19.90;86.00;;;;;;5231577;28;20047;-66
2023/04/02 12:59:27;;;;;;;26.48;24.77;;;19.90;86.60;;;;;;5240959;28;20646;-75
2023/04/02 13:02:01;;;;;;;78.15;73.68;;;19.70;88.00;;;;;;5249135;28;20040;-66
2023/04/02 13:04:31;;;;;;;82.13;76.88;;;19.70;87.30;;;;;;5248771;28;20020;-66
2023/04/02 13:07:02;;;;;;;80.07;75.38;;;19.70;88.30;;;;;;5240940;28;20499;-71
2023/04/02 13:09:38;;;;;;;67.35;63.50;;;19.60;87.80;;;;;;5241311;28;20102;-66
2023/04/02 13:12:35;;;;;;;84.22;79.40;;;19.50;88.90;;;;;;5248572;28;20051;-67
2023/04/02 13:15:32;;;;;;;86.80;81.90;;;19.50;89.00;;;;;;5238022;28;20025;-79
2023/04/02 13:18:21;;;;;;;65.32;61.40;;;19.40;88.80;;;;;;5240348;28;20029;-67
2023/04/02 13:20:57;;;;;;;64.28;60.30;;;19.10;97.00;;;;;;5249991;28;20376;-78
2023/04/02 13:23:31;;;;;;;59.53;55.47;;;19.00;99.90;;;;;;5249569;28;20020;-69
2023/04/02 13:26:19;;;;;;;60.75;56.67;;;18.90;99.90;;;;;;5249170;28;20044;-78
2023/04/02 13:29:14;;;;;;;60.65;56.33;;;18.60;99.90;;;;;;5258587;28;20024;-66